createdAt,value
2017-08-30T00:01:12.077Z,8.80
2017-08-30T00:03:40.175Z,8.98
2017-08-30T00:06:09.094Z,8.25
2017-08-30T00:08:37.271Z,8.98
2017-08-30T00:11:05.760Z,8.70
2017-08-30T00:13:34.343Z,9.50
2017-08-30T00:16:03.234Z,8.50
2017-08-30T00:18:31.398Z,8.93
2017-08-30T00:20:59.882Z,8.90
2017-08-30T00:23:27.963Z,9.02
2017-08-30T00:26:07.972Z,8.57
2017-08-30T00:28:36.183Z,8.85
2017-08-30T00:31:04.354Z,9.10
2017-08-30T00:33:32.538Z,8.98
2017-08-30T00:36:00.711Z,8.55
2017-08-30T00:38:28.810Z,8.95
2017-08-30T00:40:57.315Z,8.90
2017-08-30T00:43:25.782Z,8.95
2017-08-30T00:45:53.855Z,8.65
2017-08-30T00:48:21.950Z,8.27
2017-08-30T00:50:50.031Z,9.90
2017-08-30T00:53:18.143Z,9.40
2017-08-30T00:55:46.626Z,10.27
2017-08-30T00:58:14.718Z,9.40
2017-08-30T01:00:42.831Z,10.00
2017-08-30T01:03:10.914Z,9.50
2017-08-30T01:05:39.011Z,10.55
2017-08-30T01:08:07.118Z,8.75
2017-08-30T01:10:35.204Z,9.50
2017-08-30T01:13:03.314Z,9.77
2017-08-30T01:15:31.403Z,9.25
2017-08-30T01:17:59.875Z,9.98
2017-08-30T01:20:27.989Z,10.15
2017-08-30T01:22:56.062Z,9.25
2017-08-30T01:25:24.915Z,10.05
2017-08-30T01:27:53.014Z,9.80
2017-08-30T01:30:21.871Z,10.57
2017-08-30T01:32:50.366Z,11.18
2017-08-30T01:35:18.464Z,9.75
2017-08-30T01:37:46.959Z,9.60
2017-08-30T01:40:15.833Z,9.35
2017-08-30T01:42:43.934Z,10.05
2017-08-30T01:45:12.802Z,9.80
2017-08-30T01:47:40.886Z,11.00
2017-08-30T01:50:09.378Z,9.55
2017-08-30T01:52:37.487Z,10.07
2017-08-30T01:55:05.595Z,9.65
2017-08-30T01:57:33.670Z,10.20
2017-08-30T02:00:02.146Z,11.68
2017-08-30T02:02:31.021Z,11.05
2017-08-30T02:04:59.105Z,10.90
2017-08-30T02:07:27.645Z,10.82
2017-08-30T02:09:55.710Z,11.43
2017-08-30T02:12:23.822Z,11.18
2017-08-30T02:14:51.906Z,11.25
2017-08-30T02:17:20.754Z,10.95
2017-08-30T02:19:48.863Z,11.45
2017-08-30T02:22:17.370Z,10.35
2017-08-30T02:24:45.446Z,11.60
2017-08-30T02:27:13.950Z,10.85
2017-08-30T02:29:42.033Z,11.32
2017-08-30T02:32:10.911Z,10.90
2017-08-30T02:34:39.003Z,10.32
2017-08-30T02:37:07.850Z,10.60
2017-08-30T02:39:36.354Z,11.35
2017-08-30T02:42:04.848Z,10.90
2017-08-30T02:44:33.707Z,10.43
2017-08-30T02:47:02.584Z,11.00
2017-08-30T02:49:30.666Z,10.07
2017-08-30T02:51:58.769Z,11.95
2017-08-30T02:54:26.875Z,10.55
2017-08-30T02:56:56.011Z,11.40
2017-08-30T02:59:24.094Z,11.00
2017-08-30T03:01:52.951Z,11.57
2017-08-30T03:04:21.450Z,11.10
2017-08-30T03:06:49.971Z,11.10
2017-08-30T03:09:18.018Z,10.45
2017-08-30T03:11:46.235Z,10.93
2017-08-30T03:14:14.263Z,11.00
2017-08-30T03:16:43.180Z,10.35
2017-08-30T03:19:11.981Z,11.57
2017-08-30T03:21:40.099Z,11.98
2017-08-30T03:24:08.946Z,10.98
2017-08-30T03:26:37.027Z,11.02
2017-08-30T03:29:05.903Z,11.10
2017-08-30T03:31:33.986Z,11.23
2017-08-30T03:34:02.086Z,10.95
2017-08-30T03:36:30.174Z,10.90
2017-08-30T03:38:58.285Z,11.48
2017-08-30T03:41:26.392Z,11.00
2017-08-30T03:43:55.218Z,11.12
2017-08-30T03:46:23.338Z,10.45
2017-08-30T03:48:51.417Z,11.05
2017-08-30T03:51:19.501Z,11.02
2017-08-30T03:53:47.601Z,10.55
2017-08-30T03:56:16.106Z,10.10
2017-08-30T03:58:44.193Z,10.07
2017-08-30T04:01:13.038Z,11.77
2017-08-30T04:03:41.536Z,11.45
2017-08-30T04:06:09.619Z,11.02
2017-08-30T04:08:37.722Z,11.32
2017-08-30T04:11:05.841Z,10.50
2017-08-30T04:13:33.918Z,9.85
2017-08-30T04:16:02.003Z,11.85
2017-08-30T04:18:30.881Z,11.45
2017-08-30T04:20:58.965Z,10.60
2017-08-30T04:23:27.066Z,10.65
2017-08-30T04:25:55.146Z,11.32
2017-08-30T04:28:23.254Z,10.32
2017-08-30T04:30:51.334Z,10.25
2017-08-30T04:33:20.202Z,10.82
2017-08-30T04:35:48.286Z,10.50
2017-08-30T04:38:17.154Z,10.90
2017-08-30T04:40:46.002Z,10.65
2017-08-30T04:43:14.111Z,10.68
2017-08-30T04:45:42.978Z,10.98
2017-08-30T04:48:11.086Z,11.23
2017-08-30T04:50:39.167Z,11.05
2017-08-30T04:53:07.281Z,10.32
2017-08-30T04:55:35.371Z,9.90
2017-08-30T04:58:03.855Z,11.32
2017-08-30T05:00:32.717Z,10.15
2017-08-30T05:03:01.618Z,11.43
2017-08-30T05:05:29.694Z,10.45
2017-08-30T05:07:58.563Z,11.23
2017-08-30T05:10:27.082Z,10.95
2017-08-30T05:12:55.142Z,9.73
2017-08-30T05:15:23.217Z,10.05
2017-08-30T05:17:52.106Z,10.15
2017-08-30T05:20:20.578Z,9.55
2017-08-30T05:22:49.059Z,11.30
2017-08-30T05:25:17.666Z,10.73
2017-08-30T05:27:45.755Z,10.15
2017-08-30T05:30:14.258Z,9.52
2017-08-30T05:32:42.337Z,10.13
2017-08-30T05:35:10.811Z,9.88
2017-08-30T05:37:38.930Z,9.93
2017-08-30T05:40:07.002Z,9.25
2017-08-30T05:42:35.482Z,9.88
2017-08-30T05:45:03.979Z,9.77
2017-08-30T05:47:32.155Z,10.85
2017-08-30T05:50:00.962Z,11.23
2017-08-30T05:52:29.066Z,10.45
2017-08-30T05:54:57.151Z,10.07
2017-08-30T05:57:25.645Z,10.32
2017-08-30T05:59:53.730Z,10.32
2017-08-30T06:02:22.622Z,10.77
2017-08-30T06:04:50.698Z,9.90
2017-08-30T06:07:19.545Z,10.30
2017-08-30T06:09:47.654Z,10.50
2017-08-30T06:12:16.136Z,11.90
2017-08-30T06:14:44.234Z,9.15
2017-08-30T06:17:13.087Z,10.57
2017-08-30T06:19:41.287Z,10.63
2017-08-30T06:22:09.325Z,10.45
2017-08-30T06:24:37.414Z,9.15
2017-08-30T06:27:05.929Z,9.98
2017-08-30T06:29:34.019Z,10.85
2017-08-30T06:32:02.090Z,10.23
2017-08-30T06:34:30.195Z,10.85
2017-08-30T06:36:59.122Z,9.70
2017-08-30T06:39:27.623Z,10.55
2017-08-30T06:41:55.706Z,11.32
2017-08-30T06:44:24.218Z,10.73
2017-08-30T06:46:53.085Z,10.50
2017-08-30T06:49:21.634Z,11.00
2017-08-30T06:51:49.674Z,10.77
2017-08-30T06:54:17.793Z,11.10
2017-08-30T06:56:46.361Z,11.07
2017-08-30T06:59:14.407Z,10.70
2017-08-30T07:01:42.505Z,10.43
2017-08-30T07:04:10.985Z,11.05
2017-08-30T07:06:39.090Z,10.88
2017-08-30T07:09:07.574Z,10.27
2017-08-30T07:11:35.666Z,9.95
2017-08-30T07:14:03.745Z,9.95
2017-08-30T07:16:31.857Z,11.75
2017-08-30T07:18:59.939Z,11.15
2017-08-30T07:21:28.037Z,11.60
2017-08-30T07:23:56.514Z,11.07
2017-08-30T07:26:25.013Z,10.50
2017-08-30T07:28:53.490Z,10.80
2017-08-30T07:31:21.721Z,12.27
2017-08-30T07:33:49.770Z,11.43
2017-08-30T07:36:17.851Z,11.93
2017-08-30T07:38:45.951Z,9.90
2017-08-30T07:41:14.058Z,11.95
2017-08-30T07:43:42.137Z,11.93
2017-08-30T07:46:10.633Z,12.32
2017-08-30T07:48:38.713Z,10.68
2017-08-30T07:51:06.835Z,10.25
2017-08-30T07:53:34.936Z,11.07
2017-08-30T07:56:03.409Z,10.27
2017-08-30T07:58:31.521Z,10.23
2017-08-30T08:00:59.610Z,11.10
2017-08-30T08:03:27.693Z,11.23
2017-08-30T08:05:56.186Z,11.00
2017-08-30T08:08:24.265Z,10.93
2017-08-30T08:10:52.385Z,10.40
2017-08-30T08:13:20.866Z,11.23
2017-08-30T08:15:48.949Z,11.68
2017-08-30T08:18:17.446Z,10.43
2017-08-30T08:20:45.525Z,10.50
2017-08-30T08:23:13.630Z,10.30
2017-08-30T08:25:41.710Z,10.45
2017-08-30T08:28:10.591Z,11.10
2017-08-30T08:30:38.678Z,12.30
2017-08-30T08:33:06.763Z,10.80
2017-08-30T08:35:34.872Z,11.60
2017-08-30T08:38:02.979Z,10.75
2017-08-30T08:40:31.062Z,11.05
2017-08-30T08:42:59.594Z,12.02
2017-08-30T08:45:27.643Z,11.95
2017-08-30T08:47:55.754Z,13.45
2017-08-30T08:50:24.235Z,12.10
2017-08-30T08:52:52.318Z,11.68
2017-08-30T08:55:20.826Z,11.15
2017-08-30T08:57:48.914Z,11.27
2017-08-30T09:00:17.010Z,11.57
2017-08-30T09:02:45.117Z,12.77
2017-08-30T09:05:13.600Z,13.13
2017-08-30T09:07:41.718Z,11.90
2017-08-30T09:10:09.806Z,12.93
2017-08-30T09:12:38.322Z,11.90
2017-08-30T09:15:06.430Z,13.05
2017-08-30T09:17:34.530Z,13.85
2017-08-30T09:20:02.622Z,11.73
2017-08-30T09:22:30.705Z,12.48
2017-08-30T09:24:58.826Z,11.73
2017-08-30T09:27:27.311Z,12.05
2017-08-30T09:29:55.399Z,12.55
2017-08-30T09:32:23.501Z,11.95
2017-08-30T09:34:51.582Z,12.85
2017-08-30T09:37:19.694Z,11.95
2017-08-30T09:39:47.783Z,13.10
2017-08-30T09:42:15.864Z,12.68
2017-08-30T09:44:43.967Z,12.98
2017-08-30T09:47:12.818Z,13.02
2017-08-30T09:49:40.938Z,12.85
2017-08-30T09:52:09.018Z,13.88
2017-08-30T09:54:37.123Z,12.20
2017-08-30T09:57:05.641Z,13.30
2017-08-30T09:59:33.706Z,14.15
2017-08-30T10:02:01.807Z,12.95
2017-08-30T10:04:29.886Z,11.50
2017-08-30T10:06:58.031Z,11.00
2017-08-30T10:09:26.875Z,13.18
2017-08-30T10:11:54.950Z,12.32
2017-08-30T10:14:23.035Z,12.65
2017-08-30T10:16:51.523Z,12.70
2017-08-30T10:19:20.385Z,14.63
2017-08-30T10:21:49.263Z,12.63
2017-08-30T10:24:17.383Z,12.48
2017-08-30T10:26:45.468Z,13.98
2017-08-30T10:29:13.551Z,13.43
2017-08-30T10:31:41.651Z,12.63
2017-08-30T10:34:09.734Z,13.10
2017-08-30T10:36:37.846Z,12.68
2017-08-30T10:39:05.929Z,13.52
2017-08-30T10:41:34.042Z,11.30
2017-08-30T10:44:02.534Z,13.43
2017-08-30T10:46:32.891Z,13.55
2017-08-30T10:49:00.998Z,11.38
2017-08-30T10:51:29.098Z,12.25
2017-08-30T10:53:57.177Z,12.13
2017-08-30T10:56:25.691Z,13.40
2017-08-30T10:58:53.827Z,14.30
2017-08-30T11:01:21.905Z,12.10
2017-08-30T11:03:50.775Z,11.98
2017-08-30T11:06:18.870Z,10.88
2017-08-30T11:08:46.986Z,12.02
2017-08-30T11:11:15.172Z,11.35
2017-08-30T11:13:43.238Z,12.27
2017-08-30T11:16:11.319Z,10.43
2017-08-30T11:18:39.406Z,12.10
2017-08-30T11:21:08.380Z,10.82
2017-08-30T11:23:36.453Z,11.48
2017-08-30T11:26:04.954Z,10.57
2017-08-30T11:28:33.039Z,10.27
2017-08-30T11:31:01.158Z,11.45
2017-08-30T11:33:29.238Z,10.88
2017-08-30T11:35:57.322Z,11.85
2017-08-30T11:38:25.438Z,10.60
2017-08-30T11:40:53.521Z,11.50
2017-08-30T11:43:22.371Z,12.20
2017-08-30T11:45:50.478Z,11.98
2017-08-30T11:48:18.590Z,11.35
2017-08-30T11:50:46.675Z,11.23
2017-08-30T11:53:14.766Z,11.50
2017-08-30T11:55:42.878Z,10.38
2017-08-30T11:58:11.725Z,10.85
2017-08-30T12:00:39.802Z,9.85
2017-08-30T12:03:07.909Z,10.63
2017-08-30T12:05:36.006Z,9.73
2017-08-30T12:08:04.112Z,11.82
2017-08-30T12:10:32.196Z,10.85
2017-08-30T12:13:00.293Z,11.25
2017-08-30T12:15:28.806Z,10.68
2017-08-30T12:17:56.881Z,9.48
2017-08-30T12:20:25.744Z,10.10
2017-08-30T12:22:54.683Z,8.73
2017-08-30T12:25:22.718Z,8.13
2017-08-30T12:27:50.798Z,9.15
2017-08-30T12:30:18.894Z,8.18
2017-08-30T12:32:47.366Z,8.88
2017-08-30T12:35:15.482Z,9.25
2017-08-30T12:37:49.225Z,7.75
2017-08-30T12:40:17.375Z,8.50
2017-08-30T12:42:45.450Z,9.30
2017-08-30T12:45:14.396Z,7.32
2017-08-30T12:47:42.470Z,7.55
2017-08-30T12:50:10.550Z,9.35
2017-08-30T12:52:38.672Z,7.85
2017-08-30T12:55:06.742Z,7.87
2017-08-30T12:57:34.861Z,7.97
2017-08-30T13:00:02.929Z,8.02
2017-08-30T13:02:31.051Z,8.00
2017-08-30T13:04:59.122Z,6.85
2017-08-30T13:07:28.068Z,7.32
2017-08-30T13:09:56.154Z,6.87
2017-08-30T13:12:24.236Z,7.07
2017-08-30T13:14:52.311Z,7.05
2017-08-30T13:17:20.801Z,6.95
2017-08-30T13:19:48.883Z,6.78
2017-08-30T13:22:17.378Z,6.78
2017-08-30T13:24:45.446Z,6.62
2017-08-30T13:27:14.383Z,5.97
2017-08-30T13:29:42.468Z,6.22
2017-08-30T13:32:10.543Z,6.43
2017-08-30T13:34:38.667Z,7.40
2017-08-30T13:37:07.595Z,5.75
2017-08-30T13:39:35.671Z,5.47
2017-08-30T13:42:03.808Z,6.50
2017-08-30T13:44:31.885Z,5.75
2017-08-30T13:47:00.730Z,6.55
2017-08-30T13:49:29.243Z,7.07
2017-08-30T13:51:57.718Z,6.90
2017-08-30T13:54:25.846Z,6.68
2017-08-30T13:56:54.420Z,5.85
2017-08-30T13:59:23.217Z,6.15
2017-08-30T14:01:52.409Z,6.20
2017-08-30T14:04:20.446Z,6.05
2017-08-30T14:06:49.371Z,6.03
2017-08-30T14:09:17.454Z,6.43
2017-08-30T14:11:45.526Z,6.12
2017-08-30T14:14:13.642Z,5.55
2017-08-30T14:16:42.115Z,5.55
2017-08-30T14:19:10.990Z,6.25
2017-08-30T14:21:39.102Z,5.78
2017-08-30T14:24:07.307Z,6.18
2017-08-30T14:26:36.122Z,6.03
2017-08-30T14:29:04.203Z,5.45
2017-08-30T14:31:32.326Z,5.75
2017-08-30T14:34:00.403Z,5.78
2017-08-30T14:36:28.528Z,5.12
2017-08-30T14:38:56.630Z,4.97
2017-08-30T14:41:25.447Z,5.90
2017-08-30T14:43:53.561Z,5.78
2017-08-30T14:46:21.637Z,5.93
2017-08-30T14:48:49.782Z,4.85
2017-08-30T14:51:17.870Z,5.78
2017-08-30T14:53:45.945Z,5.10
2017-08-30T14:56:14.088Z,5.80
2017-08-30T14:58:42.138Z,5.43
2017-08-30T15:01:10.649Z,4.70
2017-08-30T15:03:38.723Z,4.45
2017-08-30T15:06:06.846Z,6.05
2017-08-30T15:08:34.961Z,4.65
2017-08-30T15:11:03.078Z,5.25
2017-08-30T15:13:31.156Z,4.50
2017-08-30T15:15:59.265Z,4.70
2017-08-30T15:18:27.337Z,4.75
2017-08-30T15:20:55.458Z,5.18
2017-08-30T15:23:23.535Z,4.37
2017-08-30T15:25:51.671Z,5.50
2017-08-30T15:28:19.747Z,4.75
2017-08-30T15:30:47.823Z,4.30
2017-08-30T15:33:15.946Z,4.37
2017-08-30T15:35:44.420Z,4.15
2017-08-30T15:38:12.547Z,4.80
2017-08-30T15:40:41.017Z,5.50
2017-08-30T15:43:09.094Z,4.85
2017-08-30T15:45:37.630Z,4.62
2017-08-30T15:48:06.510Z,3.90
2017-08-30T15:50:34.627Z,4.20
2017-08-30T15:53:03.140Z,3.80
2017-08-30T15:55:31.263Z,3.58
2017-08-30T15:57:59.339Z,5.03
2017-08-30T16:00:27.494Z,3.75
2017-08-30T16:02:56.021Z,3.60
2017-08-30T16:05:24.050Z,4.50
2017-08-30T16:07:52.175Z,4.00
2017-08-30T16:10:20.641Z,3.15
2017-08-30T16:12:48.709Z,3.00
2017-08-30T16:15:16.830Z,3.17
2017-08-30T16:17:44.938Z,3.30
2017-08-30T16:20:13.074Z,3.00
2017-08-30T16:22:41.151Z,3.45
2017-08-30T16:25:09.623Z,3.70
2017-08-30T16:27:37.735Z,3.22
2017-08-30T16:30:05.851Z,3.40
2017-08-30T16:32:34.691Z,3.47
2017-08-30T16:35:03.206Z,4.18
2017-08-30T16:37:31.294Z,4.00
2017-08-30T16:39:59.361Z,3.60
2017-08-30T16:42:27.478Z,3.87
2017-08-30T16:44:56.362Z,3.40
2017-08-30T16:47:24.870Z,4.18
2017-08-30T16:49:53.393Z,3.78
2017-08-30T16:52:21.470Z,4.30
2017-08-30T16:54:49.547Z,3.97
2017-08-30T16:57:18.064Z,4.30
2017-08-30T16:59:46.138Z,3.20
2017-08-30T17:02:14.978Z,3.97
2017-08-30T17:04:43.094Z,4.18
2017-08-30T17:07:12.034Z,4.93
2017-08-30T17:09:40.887Z,3.58
2017-08-30T17:12:08.962Z,4.12
2017-08-30T17:14:37.034Z,3.50
2017-08-30T17:17:05.557Z,3.62
2017-08-30T17:19:33.622Z,3.50
2017-08-30T17:22:01.706Z,3.85
2017-08-30T17:24:29.842Z,3.58
2017-08-30T17:26:58.347Z,4.60
2017-08-30T17:29:27.191Z,4.05
2017-08-30T17:31:55.265Z,4.80
2017-08-30T17:34:23.734Z,3.72
2017-08-30T17:36:52.684Z,3.50
2017-08-30T17:39:21.110Z,3.80
2017-08-30T17:41:49.647Z,4.15
2017-08-30T17:44:17.734Z,3.45
2017-08-30T17:46:45.806Z,3.37
2017-08-30T17:49:13.878Z,3.60
2017-08-30T17:51:41.993Z,3.65
2017-08-30T17:54:10.069Z,3.65
2017-08-30T17:56:40.054Z,3.78
2017-08-30T17:59:08.123Z,3.25
2017-08-30T18:01:36.635Z,3.97
2017-08-30T18:04:05.164Z,4.30
2017-08-30T18:06:33.280Z,5.93
2017-08-30T18:09:01.397Z,5.20
2017-08-30T18:11:29.478Z,4.70
2017-08-30T18:13:57.553Z,4.55
2017-08-30T18:16:25.670Z,4.57
2017-08-30T18:18:53.750Z,4.20
2017-08-30T18:21:21.864Z,4.90
2017-08-30T18:23:49.982Z,4.25
2017-08-30T18:26:18.451Z,4.60
2017-08-30T18:28:46.571Z,4.60
2017-08-30T18:31:14.650Z,4.03
2017-08-30T18:33:42.782Z,5.53
2017-08-30T18:36:10.902Z,5.32
2017-08-30T18:38:38.978Z,4.32
2017-08-30T18:41:08.318Z,5.18
2017-08-30T18:43:36.447Z,4.28
2017-08-30T18:46:04.923Z,4.37
2017-08-30T18:48:33.043Z,4.50
2017-08-30T18:51:01.703Z,4.85
2017-08-30T18:53:30.399Z,4.40
2017-08-30T18:55:58.470Z,4.22
2017-08-30T18:58:28.063Z,4.07
2017-08-30T19:00:56.990Z,4.18
2017-08-30T19:03:25.848Z,4.70
2017-08-30T19:05:53.918Z,4.68
2017-08-30T19:08:22.034Z,4.93
2017-08-30T19:10:50.502Z,4.45
2017-08-30T19:13:19.397Z,5.40
2017-08-30T19:15:47.479Z,6.47
2017-08-30T19:18:15.550Z,4.40
2017-08-30T19:20:43.665Z,4.25
2017-08-30T19:23:11.756Z,4.40
2017-08-30T19:25:40.617Z,5.37
2017-08-30T19:28:08.693Z,6.60
2017-08-30T19:30:36.810Z,4.85
2017-08-30T19:33:06.029Z,4.85
2017-08-30T19:35:34.934Z,4.85
2017-08-30T19:38:03.767Z,4.55
2017-08-30T19:40:32.352Z,4.97
2017-08-30T19:43:01.426Z,4.65
2017-08-30T19:45:30.642Z,4.62
2017-08-30T19:47:58.723Z,4.70
2017-08-30T19:50:26.850Z,4.62
2017-08-30T19:52:54.914Z,4.53
2017-08-30T19:55:23.070Z,5.20
2017-08-30T19:57:51.156Z,4.78
2017-08-30T20:00:19.210Z,5.25
2017-08-30T20:02:47.342Z,5.40
2017-08-30T20:05:15.838Z,5.03
2017-08-30T20:07:43.885Z,5.50
2017-08-30T20:10:12.015Z,4.80
2017-08-30T20:12:40.096Z,5.28
2017-08-30T20:15:08.178Z,5.37
2017-08-30T20:17:37.073Z,5.72
2017-08-30T20:20:05.539Z,4.87
2017-08-30T20:22:33.606Z,4.87
2017-08-30T20:25:02.496Z,4.72
2017-08-30T20:27:31.051Z,4.72
2017-08-30T20:29:59.126Z,4.32
2017-08-30T20:32:27.202Z,4.50
2017-08-30T20:34:55.327Z,4.00
2017-08-30T20:37:23.842Z,3.45
2017-08-30T20:39:51.970Z,3.35
2017-08-30T20:42:20.807Z,3.75
2017-08-30T20:44:48.879Z,4.40
2017-08-30T20:47:17.390Z,4.25
2017-08-30T20:49:45.465Z,3.70
2017-08-30T20:52:13.969Z,4.57
2017-08-30T20:54:42.050Z,3.35
2017-08-30T20:57:10.560Z,4.93
2017-08-30T20:59:38.634Z,4.57
2017-08-30T21:02:07.527Z,4.30
2017-08-30T21:04:35.682Z,4.15
2017-08-30T21:07:04.600Z,3.25
2017-08-30T21:09:32.625Z,4.30
2017-08-30T21:12:00.738Z,3.90
2017-08-30T21:14:28.822Z,4.20
2017-08-30T21:16:56.988Z,4.10
2017-08-30T21:19:26.495Z,4.78
2017-08-30T21:21:54.669Z,3.55
2017-08-30T21:24:22.754Z,3.53
2017-08-30T21:26:50.916Z,4.37
2017-08-30T21:29:18.950Z,3.75
2017-08-30T21:31:47.061Z,4.30
2017-08-30T21:34:15.177Z,2.87
2017-08-30T21:36:43.254Z,3.47
2017-08-30T21:39:12.150Z,3.22
2017-08-30T21:41:40.218Z,3.30
2017-08-30T21:44:08.339Z,3.65
2017-08-30T21:46:37.173Z,3.50
2017-08-30T21:49:06.011Z,3.65
2017-08-30T21:51:34.121Z,3.30
2017-08-30T21:54:02.246Z,3.40
2017-08-30T21:56:30.365Z,3.45
2017-08-30T21:58:58.443Z,3.75
2017-08-30T22:01:26.558Z,3.60
2017-08-30T22:03:54.633Z,2.78
2017-08-30T22:06:22.780Z,3.65
2017-08-30T22:08:50.830Z,4.10
2017-08-30T22:11:18.907Z,3.30
2017-08-30T22:13:47.110Z,3.62
2017-08-30T22:16:15.188Z,2.95
2017-08-30T22:18:43.257Z,3.17
2017-08-30T22:21:11.345Z,2.90
2017-08-30T22:23:39.422Z,3.05
2017-08-30T22:26:07.516Z,3.00
2017-08-30T22:28:36.442Z,2.90
2017-08-30T22:31:04.548Z,2.90
2017-08-30T22:33:32.619Z,3.65
2017-08-30T22:36:00.690Z,2.85
2017-08-30T22:38:28.797Z,3.42
2017-08-30T22:40:56.869Z,2.95
2017-08-30T22:43:24.946Z,2.78
2017-08-30T22:45:53.059Z,2.78
2017-08-30T22:48:21.901Z,3.12
2017-08-30T22:50:49.963Z,3.35
2017-08-30T22:53:18.058Z,3.75
2017-08-30T22:55:46.162Z,2.80
2017-08-30T22:58:15.003Z,2.85
2017-08-30T23:00:43.075Z,2.83
2017-08-30T23:03:11.179Z,2.97
2017-08-30T23:05:39.250Z,2.45
2017-08-30T23:08:07.719Z,2.78
2017-08-30T23:10:36.579Z,2.90
2017-08-30T23:13:05.451Z,3.00
2017-08-30T23:15:33.526Z,3.12
2017-08-30T23:18:01.594Z,2.80
2017-08-30T23:20:29.691Z,3.53
2017-08-30T23:22:58.158Z,2.70
2017-08-30T23:25:26.662Z,3.50
2017-08-30T23:27:54.732Z,2.70
2017-08-30T23:30:22.806Z,3.05
2017-08-30T23:32:50.902Z,3.30
2017-08-30T23:35:20.480Z,3.00
2017-08-30T23:37:48.569Z,3.20
2017-08-30T23:40:16.642Z,3.40
2017-08-30T23:42:44.734Z,3.30
2017-08-30T23:45:13.692Z,3.37
2017-08-30T23:47:41.722Z,2.80
2017-08-30T23:50:10.578Z,2.05
2017-08-30T23:52:38.654Z,2.87
2017-08-30T23:55:06.747Z,3.17
2017-08-30T23:57:34.817Z,3.15
